sensor_id;sensor_type;location;lat;lon;timestamp;temperature;humidity
19588;DHT22;9940;47.252;8.696;2023-02-21T11:01:20;31.30;43.70
19588;DHT22;9940;47.252;8.696;2023-02-21T11:06:31;32.70;41.30
19588;DHT22;9940;47.252;8.696;2023-02-21T11:08:58;33.70;40.10
19588;DHT22;9940;47.252;8.696;2023-02-21T11:11:42;33.90;38.90
19588;DHT22;9940;47.252;8.696;2023-02-21T14:14:34;27.00;34.70
19588;DHT22;9940;47.252;8.696;2023-02-21T14:17:13;26.90;35.20
19588;DHT22;9940;47.252;8.696;2023-02-21T14:19:45;26.70;35.30
19588;DHT22;9940;47.252;8.696;2023-02-21T14:22:32;26.50;35.50
19588;DHT22;9940;47.252;8.696;2023-02-21T14:25:20;25.90;36.00
19588;DHT22;9940;47.252;8.696;2023-02-21T14:27:48;25.40;36.50
19588;DHT22;9940;47.252;8.696;2023-02-21T14:30:35;24.90;36.80
19588;DHT22;9940;47.252;8.696;2023-02-21T14:33:23;24.50;37.40
19588;DHT22;9940;47.252;8.696;2023-02-21T14:36:01;24.10;37.90
19588;DHT22;9940;47.252;8.696;2023-02-21T14:38:36;23.70;38.30
19588;DHT22;9940;47.252;8.696;2023-02-21T14:43:51;23.30;38.20
19588;DHT22;9940;47.252;8.696;2023-02-21T14:57:37;22.80;40.30
19588;DHT22;9940;47.252;8.696;2023-02-21T15:06:27;22.70;41.60
19588;DHT22;9940;47.252;8.696;2023-02-21T15:08:53;22.80;41.70
19588;DHT22;9940;47.252;8.696;2023-02-21T15:11:31;22.80;41.80
19588;DHT22;9940;47.252;8.696;2023-02-21T15:14:31;22.70;41.60
19588;DHT22;9940;47.252;8.696;2023-02-21T15:17:12;22.70;41.70
19588;DHT22;9940;47.252;8.696;2023-02-21T15:19:38;22.70;41.40
19588;DHT22;9940;47.252;8.696;2023-02-21T15:27:36;22.80;40.90
19588;DHT22;9940;47.252;8.696;2023-02-21T15:30:12;22.70;40.90
19588;DHT22;9940;47.252;8.696;2023-02-21T15:32:38;22.70;41.00
19588;DHT22;9940;47.252;8.696;2023-02-21T15:35:12;22.60;41.00
19588;DHT22;9940;47.252;8.696;2023-02-21T15:37:44;22.60;40.90
19588;DHT22;9940;47.252;8.696;2023-02-21T15:40:18;22.60;40.80
19588;DHT22;9940;47.252;8.696;2023-02-21T15:42:45;22.70;40.70
19588;DHT22;9940;47.252;8.696;2023-02-21T15:45:18;22.70;40.70
19588;DHT22;9940;47.252;8.696;2023-02-21T15:47:46;22.60;40.70
19588;DHT22;9940;47.252;8.696;2023-02-21T15:53:16;22.10;41.10
19588;DHT22;9940;47.252;8.696;2023-02-21T15:55:43;21.90;41.30
19588;DHT22;9940;47.252;8.696;2023-02-21T16:28:43;19.50;45.50
19588;DHT22;9940;47.252;8.696;2023-02-21T16:31:16;19.30;46.10
19588;DHT22;9940;47.252;8.696;2023-02-21T16:33:42;19.20;46.60
19588;DHT22;9940;47.252;8.696;2023-02-21T16:36:16;19.10;46.70
19588;DHT22;9940;47.252;8.696;2023-02-21T16:38:43;19.00;47.10
19588;DHT22;9940;47.252;8.696;2023-02-21T16:41:14;18.90;47.30
19588;DHT22;9940;47.252;8.696;2023-02-21T16:43:40;18.80;47.60
19588;DHT22;9940;47.252;8.696;2023-02-21T16:46:06;18.70;47.80
